PWSweather.com
Personal Weather Stations
Station Observations
WOODBURYWX
Lighthouse Rd, Woodbury, Woodbury, CT 06798

Lighthouse Rd, WoodburyWoodbury, CT 06798

Lat: 41.553333, Lon: -73.224167

Elevation: 437

Station Type: Ambient Weather WS-1090

Latest ConditionsUpdated 2:11:00 AM EST Friday, Dec 19, 2014
Currently Today's Max Today's Min Today's Average
Temperature 33.6°F0.9°C 33.8°F1.0°C 32.9°F0.5°C 33.4°F0.8°C
Dew Point 24.6°F-4.1°C 25.1°F-3.8°C 24.2°F-4.3°C 24.7°F-4.1°C
Winds 1.0 mph S1.6 kmh S 3.1 mph S5.0 kmh S - 0.8 mph 1.3 kmh
Wind Gusts 2.4 mph3.9 kmh 8.1 mph13.0 kmh - -
Humidity 69% 71% 69% 70%
Pressure 29.96 in1014.6 mb 29.97 in1014.9 mb 29.95 in1014.2 mb -
Hour Temp Dew Point Humidity Winds Wind Gusts Pressure Precip Precip Rate Daily Precip Total
02:11 AM 33.6°F0.9°C 24.6°F-4.1°C 69% 1.0 mph S1.6 kmh S 2.4 mph3.9 kmh 29.96 in1014.6 mb 0.00 in0.0 mm 0.00 in/hr0.0 mm/hr 0.00 in0.0 mm
02:10 AM 33.6°F0.9°C 24.6°F-4.1°C 69% 0.9 mph S1.4 kmh S 2.4 mph3.9 kmh 29.97 in1014.9 mb 0.00 in0.0 mm 0.00 in/hr0.0 mm/hr 0.00 in0.0 mm
02:09 AM 33.6°F0.9°C 24.6°F-4.1°C 69% 0.8 mph S1.3 kmh S 2.4 mph3.9 kmh 29.97 in1014.9 mb 0.00 in0.0 mm 0.00 in/hr0.0 mm/hr 0.00 in0.0 mm
02:08 AM 33.6°F0.9°C 24.6°F-4.1°C 69% 0.6 mph S1.0 kmh S 2.4 mph3.9 kmh 29.97 in1014.9 mb 0.00 in0.0 mm 0.00 in/hr0.0 mm/hr 0.00 in0.0 mm
02:07 AM 33.6°F0.9°C 24.6°F-4.1°C 69% 0.6 mph S1.0 kmh S 2.4 mph3.9 kmh 29.96 in1014.6 mb 0.00 in0.0 mm 0.00 in/hr0.0 mm/hr 0.00 in0.0 mm
02:06 AM 33.4°F0.8°C 24.7°F-4.1°C 70% 0.5 mph S0.8 kmh S 2.4 mph3.9 kmh 29.96 in1014.6 mb 0.00 in0.0 mm 0.00 in/hr0.0 mm/hr 0.00 in0.0 mm
02:05 AM 33.4°F0.8°C 24.7°F-4.1°C 70% 0.4 mph S0.6 kmh S 2.4 mph3.9 kmh 29.96 in1014.6 mb 0.00 in0.0 mm 0.00 in/hr0.0 mm/hr 0.00 in0.0 mm
02:04 AM 33.4°F0.8°C 24.7°F-4.1°C 70% 0.2 mph S0.3 kmh S 1.6 mph2.6 kmh 29.96 in1014.6 mb 0.00 in0.0 mm 0.00 in/hr0.0 mm/hr 0.00 in0.0 mm
02:03 AM 33.4°F0.8°C 24.7°F-4.1°C 70% 0.2 mph S0.3 kmh S 1.6 mph2.6 kmh 29.97 in1014.9 mb 0.00 in0.0 mm 0.00 in/hr0.0 mm/hr 0.00 in0.0 mm
02:02 AM 33.4°F0.8°C 24.7°F-4.1°C 70% 0.2 mph S0.3 kmh S 1.6 mph2.6 kmh 29.97 in1014.9 mb 0.00 in0.0 mm 0.00 in/hr0.0 mm/hr 0.00 in0.0 mm
02:01 AM 33.4°F0.8°C 24.7°F-4.1°C 70% 0.2 mph S0.3 kmh S 1.6 mph2.6 kmh 29.96 in1014.6 mb 0.00 in0.0 mm 0.00 in/hr0.0 mm/hr 0.00 in0.0 mm
02:00 AM 33.4°F0.8°C 24.4°F-4.2°C 69% 0.1 mph S0.2 kmh S 1.6 mph2.6 kmh 29.96 in1014.6 mb 0.00 in0.0 mm 0.00 in/hr0.0 mm/hr 0.00 in0.0 mm
01:59 AM 33.4°F0.8°C 24.4°F-4.2°C 69% Calm Calm -- 29.97 in1014.9 mb 0.00 in0.0 mm 0.00 in/hr0.0 mm/hr 0.00 in0.0 mm
01:58 AM 33.4°F0.8°C 24.4°F-4.2°C 69% 0.1 mph N0.2 kmh N 0.8 mph1.3 kmh 29.97 in1014.9 mb 0.00 in0.0 mm 0.00 in/hr0.0 mm/hr 0.00 in0.0 mm
01:57 AM 33.6°F0.9°C 24.6°F-4.1°C 69% 0.1 mph N0.2 kmh N 0.8 mph1.3 kmh 29.96 in1014.6 mb 0.00 in0.0 mm 0.00 in/hr0.0 mm/hr 0.00 in0.0 mm
01:56 AM 33.4°F0.8°C 24.7°F-4.1°C 70% 0.1 mph N0.2 kmh N 0.8 mph1.3 kmh 29.96 in1014.6 mb 0.00 in0.0 mm 0.00 in/hr0.0 mm/hr 0.00 in0.0 mm
01:55 AM 33.4°F0.8°C 24.7°F-4.1°C 70% 0.1 mph N0.2 kmh N 0.8 mph1.3 kmh 29.97 in1014.9 mb 0.00 in0.0 mm 0.00 in/hr0.0 mm/hr 0.00 in0.0 mm
01:54 AM 33.4°F0.8°C 24.7°F-4.1°C 70% 0.1 mph N0.2 kmh N 0.8 mph1.3 kmh 29.97 in1014.9 mb 0.00 in0.0 mm 0.00 in/hr0.0 mm/hr 0.00 in0.0 mm
01:53 AM 33.6°F0.9°C 24.6°F-4.1°C 69% 0.1 mph N0.2 kmh N 0.8 mph1.3 kmh 29.96 in1014.6 mb 0.00 in0.0 mm 0.00 in/hr0.0 mm/hr 0.00 in0.0 mm
01:52 AM 33.6°F0.9°C 24.6°F-4.1°C 69% 0.1 mph N0.2 kmh N 0.8 mph1.3 kmh 29.96 in1014.6 mb 0.00 in0.0 mm 0.00 in/hr0.0 mm/hr 0.00 in0.0 mm
01:51 AM 33.6°F0.9°C 24.9°F-3.9°C 70% 0.1 mph N0.2 kmh N 0.8 mph1.3 kmh 29.96 in1014.6 mb 0.00 in0.0 mm 0.00 in/hr0.0 mm/hr 0.00 in0.0 mm
01:50 AM 33.4°F0.8°C 24.7°F-4.1°C 70% 0.1 mph N0.2 kmh N 0.8 mph1.3 kmh 29.97 in1014.9 mb 0.00 in0.0 mm 0.00 in/hr0.0 mm/hr 0.00 in0.0 mm
01:49 AM 33.4°F0.8°C 24.7°F-4.1°C 70% 0.1 mph N0.2 kmh N 0.8 mph1.3 kmh 29.97 in1014.9 mb 0.00 in0.0 mm 0.00 in/hr0.0 mm/hr 0.00 in0.0 mm
01:48 AM 33.4°F0.8°C 24.7°F-4.1°C 70% Calm Calm -- 29.96 in1014.6 mb 0.00 in0.0 mm 0.00 in/hr0.0 mm/hr 0.00 in0.0 mm
01:47 AM 33.4°F0.8°C 24.7°F-4.1°C 70% Calm Calm 0.8 mph1.3 kmh 29.97 in1014.9 mb 0.00 in0.0 mm 0.00 in/hr0.0 mm/hr 0.00 in0.0 mm
01:46 AM 33.4°F0.8°C 24.7°F-4.1°C 70% 0.1 mph S0.2 kmh S 0.8 mph1.3 kmh 29.96 in1014.6 mb 0.00 in0.0 mm 0.00 in/hr0.0 mm/hr 0.00 in0.0 mm
01:45 AM 33.4°F0.8°C 24.7°F-4.1°C 70% 0.1 mph S0.2 kmh S 0.8 mph1.3 kmh 29.96 in1014.6 mb 0.00 in0.0 mm 0.00 in/hr0.0 mm/hr 0.00 in0.0 mm
01:44 AM 33.4°F0.8°C 24.7°F-4.1°C 70% 0.1 mph S0.2 kmh S 0.8 mph1.3 kmh 29.96 in1014.6 mb 0.00 in0.0 mm 0.00 in/hr0.0 mm/hr 0.00 in0.0 mm
01:43 AM 33.4°F0.8°C 24.7°F-4.1°C 70% 0.1 mph S0.2 kmh S 0.8 mph1.3 kmh 29.96 in1014.6 mb 0.00 in0.0 mm 0.00 in/hr0.0 mm/hr 0.00 in0.0 mm
01:42 AM 33.4°F0.8°C 24.7°F-4.1°C 70% 0.1 mph S0.2 kmh S 0.8 mph1.3 kmh 29.96 in1014.6 mb 0.00 in0.0 mm 0.00 in/hr0.0 mm/hr 0.00 in0.0 mm
01:41 AM 33.4°F0.8°C 24.7°F-4.1°C 70% 0.1 mph S0.2 kmh S 0.8 mph1.3 kmh 29.96 in1014.6 mb 0.00 in0.0 mm 0.00 in/hr0.0 mm/hr 0.00 in0.0 mm
01:40 AM 33.4°F0.8°C 24.7°F-4.1°C 70% 0.1 mph S0.2 kmh S 0.8 mph1.3 kmh 29.97 in1014.9 mb 0.00 in0.0 mm 0.00 in/hr0.0 mm/hr 0.00 in0.0 mm
01:39 AM 33.4°F0.8°C 24.7°F-4.1°C 70% 0.1 mph S0.2 kmh S 0.8 mph1.3 kmh 29.96 in1014.6 mb 0.00 in0.0 mm 0.00 in/hr0.0 mm/hr 0.00 in0.0 mm
01:38 AM 33.4°F0.8°C 24.7°F-4.1°C 70% 0.2 mph S0.3 kmh S 1.6 mph2.6 kmh 29.96 in1014.6 mb 0.00 in0.0 mm 0.00 in/hr0.0 mm/hr 0.00 in0.0 mm
01:37 AM 33.3°F0.7°C 24.6°F-4.1°C 70% 0.1 mph S0.2 kmh S 1.6 mph2.6 kmh 29.96 in1014.6 mb 0.00 in0.0 mm 0.00 in/hr0.0 mm/hr 0.00 in0.0 mm
01:36 AM 33.4°F0.8°C 24.7°F-4.1°C 70% 0.1 mph S0.2 kmh S 1.6 mph2.6 kmh 29.96 in1014.6 mb 0.00 in0.0 mm 0.00 in/hr0.0 mm/hr 0.00 in0.0 mm
01:35 AM 33.4°F0.8°C 24.7°F-4.1°C 70% 0.2 mph S0.3 kmh S 1.6 mph2.6 kmh 29.96 in1014.6 mb 0.00 in0.0 mm 0.00 in/hr0.0 mm/hr 0.00 in0.0 mm
01:34 AM 33.3°F0.7°C 24.6°F-4.1°C 70% 0.6 mph SW1.0 kmh SW 4.0 mph6.4 kmh 29.96 in1014.6 mb 0.00 in0.0 mm 0.00 in/hr0.0 mm/hr 0.00 in0.0 mm
01:33 AM 33.3°F0.7°C 24.6°F-4.1°C 70% 0.6 mph SW1.0 kmh SW 4.0 mph6.4 kmh 29.97 in1014.9 mb 0.00 in0.0 mm 0.00 in/hr0.0 mm/hr 0.00 in0.0 mm
01:32 AM 33.3°F0.7°C 24.6°F-4.1°C 70% 0.6 mph SW1.0 kmh SW 4.0 mph6.4 kmh 29.96 in1014.6 mb 0.00 in0.0 mm 0.00 in/hr0.0 mm/hr 0.00 in0.0 mm
01:31 AM 33.3°F0.7°C 24.6°F-4.1°C 70% 0.7 mph WSW1.1 kmh WSW 4.0 mph6.4 kmh 29.96 in1014.6 mb 0.00 in0.0 mm 0.00 in/hr0.0 mm/hr 0.00 in0.0 mm
01:30 AM 33.3°F0.7°C 24.6°F-4.1°C 70% 0.9 mph SW1.4 kmh SW 4.0 mph6.4 kmh 29.96 in1014.6 mb 0.00 in0.0 mm 0.00 in/hr0.0 mm/hr 0.00 in0.0 mm
01:29 AM 33.3°F0.7°C 24.6°F-4.1°C 70% 1.0 mph SW1.6 kmh SW 4.0 mph6.4 kmh 29.97 in1014.9 mb 0.00 in0.0 mm 0.00 in/hr0.0 mm/hr 0.00 in0.0 mm
01:28 AM 33.3°F0.7°C 24.6°F-4.1°C 70% 1.1 mph SW1.8 kmh SW 4.0 mph6.4 kmh 29.96 in1014.6 mb 0.00 in0.0 mm 0.00 in/hr0.0 mm/hr 0.00 in0.0 mm
01:27 AM 33.3°F0.7°C 24.6°F-4.1°C 70% 1.1 mph WSW1.8 kmh WSW 4.0 mph6.4 kmh 29.96 in1014.6 mb 0.00 in0.0 mm 0.00 in/hr0.0 mm/hr 0.00 in0.0 mm
01:26 AM 33.3°F0.7°C 24.9°F-3.9°C 71% 1.1 mph WSW1.8 kmh WSW 4.0 mph6.4 kmh 29.97 in1014.9 mb 0.00 in0.0 mm 0.00 in/hr0.0 mm/hr 0.00 in0.0 mm
01:25 AM 33.4°F0.8°C 25.1°F-3.8°C 71% 1.0 mph WSW1.6 kmh WSW 4.0 mph6.4 kmh 29.97 in1014.9 mb 0.00 in0.0 mm 0.00 in/hr0.0 mm/hr 0.00 in0.0 mm
01:24 AM 33.1°F0.6°C 24.7°F-4.1°C 71% 0.7 mph SW1.1 kmh SW 2.4 mph3.9 kmh 29.96 in1014.6 mb 0.00 in0.0 mm 0.00 in/hr0.0 mm/hr 0.00 in0.0 mm
01:23 AM 33.1°F0.6°C 24.7°F-4.1°C 71% 0.8 mph SW1.3 kmh SW 2.4 mph3.9 kmh 29.96 in1014.6 mb 0.00 in0.0 mm 0.00 in/hr0.0 mm/hr 0.00 in0.0 mm
01:22 AM 33.1°F0.6°C 24.7°F-4.1°C 71% 0.8 mph SW1.3 kmh SW 2.4 mph3.9 kmh 29.96 in1014.6 mb 0.00 in0.0 mm 0.00 in/hr0.0 mm/hr 0.00 in0.0 mm
01:21 AM 33.1°F0.6°C 24.4°F-4.2°C 70% 0.8 mph SSW1.3 kmh SSW 3.2 mph5.1 kmh 29.96 in1014.6 mb 0.00 in0.0 mm 0.00 in/hr0.0 mm/hr 0.00 in0.0 mm
01:20 AM 33.1°F0.6°C 24.4°F-4.2°C 70% 0.8 mph SSW1.3 kmh SSW 3.2 mph5.1 kmh 29.96 in1014.6 mb 0.00 in0.0 mm 0.00 in/hr0.0 mm/hr 0.00 in0.0 mm
01:19 AM 33.3°F0.7°C 24.6°F-4.1°C 70% 0.8 mph SSW1.3 kmh SSW 3.2 mph5.1 kmh 29.96 in1014.6 mb 0.00 in0.0 mm 0.00 in/hr0.0 mm/hr 0.00 in0.0 mm
01:18 AM 32.9°F0.5°C 24.2°F-4.3°C 70% 0.6 mph S1.0 kmh S 3.2 mph5.1 kmh 29.96 in1014.6 mb 0.00 in0.0 mm 0.00 in/hr0.0 mm/hr 0.00 in0.0 mm
01:17 AM 32.9°F0.5°C 24.2°F-4.3°C 70% 0.9 mph S1.4 kmh S 3.2 mph5.1 kmh 29.96 in1014.6 mb 0.00 in0.0 mm 0.00 in/hr0.0 mm/hr 0.00 in0.0 mm
01:16 AM 33.1°F0.6°C 24.4°F-4.2°C 70% 1.2 mph S1.9 kmh S 3.2 mph5.1 kmh 29.96 in1014.6 mb 0.00 in0.0 mm 0.00 in/hr0.0 mm/hr 0.00 in0.0 mm
01:15 AM 33.1°F0.6°C 24.4°F-4.2°C 70% 1.5 mph S2.4 kmh S 3.2 mph5.1 kmh 29.96 in1014.6 mb 0.00 in0.0 mm 0.00 in/hr0.0 mm/hr 0.00 in0.0 mm
01:14 AM 33.3°F0.7°C 24.6°F-4.1°C 70% 1.8 mph S2.9 kmh S 3.2 mph5.1 kmh 29.96 in1014.6 mb 0.00 in0.0 mm 0.00 in/hr0.0 mm/hr 0.00 in0.0 mm
01:13 AM 33.3°F0.7°C 24.6°F-4.1°C 70% 2.1 mph S3.4 kmh S 3.2 mph5.1 kmh 29.96 in1014.6 mb 0.00 in0.0 mm 0.00 in/hr0.0 mm/hr 0.00 in0.0 mm
01:12 AM 33.1°F0.6°C 24.4°F-4.2°C 70% 2.4 mph S3.9 kmh S 3.2 mph5.1 kmh 29.96 in1014.6 mb 0.00 in0.0 mm 0.00 in/hr0.0 mm/hr 0.00 in0.0 mm
01:11 AM 33.1°F0.6°C 24.4°F-4.2°C 70% 2.6 mph S4.2 kmh S 3.2 mph5.1 kmh 29.96 in1014.6 mb 0.00 in0.0 mm 0.00 in/hr0.0 mm/hr 0.00 in0.0 mm
01:10 AM 33.1°F0.6°C 24.4°F-4.2°C 70% 2.6 mph S4.2 kmh S 3.2 mph5.1 kmh 29.96 in1014.6 mb 0.00 in0.0 mm 0.00 in/hr0.0 mm/hr 0.00 in0.0 mm
01:09 AM 33.3°F0.7°C 24.6°F-4.1°C 70% 2.9 mph S4.7 kmh S 4.0 mph6.4 kmh 29.96 in1014.6 mb 0.00 in0.0 mm 0.00 in/hr0.0 mm/hr 0.00 in0.0 mm
01:08 AM 33.3°F0.7°C 24.6°F-4.1°C 70% 3.1 mph S5.0 kmh S 4.0 mph6.4 kmh 29.95 in1014.2 mb 0.00 in0.0 mm 0.00 in/hr0.0 mm/hr 0.00 in0.0 mm
01:07 AM 33.3°F0.7°C 24.6°F-4.1°C 70% 2.8 mph S4.5 kmh S 4.0 mph6.4 kmh 29.96 in1014.6 mb 0.00 in0.0 mm 0.00 in/hr0.0 mm/hr 0.00 in0.0 mm
01:06 AM 33.3°F0.7°C 24.6°F-4.1°C 70% 2.7 mph S4.3 kmh S 4.0 mph6.4 kmh 29.95 in1014.2 mb 0.00 in0.0 mm 0.00 in/hr0.0 mm/hr 0.00 in0.0 mm
01:05 AM 33.3°F0.7°C 24.6°F-4.1°C 70% 2.7 mph S4.3 kmh S 4.0 mph6.4 kmh 29.96 in1014.6 mb 0.00 in0.0 mm 0.00 in/hr0.0 mm/hr 0.00 in0.0 mm
01:04 AM 33.3°F0.7°C 24.6°F-4.1°C 70% 2.4 mph S3.9 kmh S 4.0 mph6.4 kmh 29.95 in1014.2 mb 0.00 in0.0 mm 0.00 in/hr0.0 mm/hr 0.00 in0.0 mm
01:03 AM 33.3°F0.7°C 24.6°F-4.1°C 70% 2.1 mph S3.4 kmh S 4.0 mph6.4 kmh 29.95 in1014.2 mb 0.00 in0.0 mm 0.00 in/hr0.0 mm/hr 0.00 in0.0 mm
01:02 AM 33.3°F0.7°C 24.6°F-4.1°C 70% 1.8 mph SSW2.9 kmh SSW 4.0 mph6.4 kmh 29.96 in1014.6 mb 0.00 in0.0 mm 0.00 in/hr0.0 mm/hr 0.00 in0.0 mm
01:01 AM 33.3°F0.7°C 24.6°F-4.1°C 70% 1.9 mph NW3.1 kmh NW 8.1 mph13.0 kmh 29.95 in1014.2 mb 0.00 in0.0 mm 0.00 in/hr0.0 mm/hr 0.00 in0.0 mm
01:00 AM 33.3°F0.7°C 24.6°F-4.1°C 70% 2.4 mph W3.9 kmh W 8.1 mph13.0 kmh 29.96 in1014.6 mb 0.00 in0.0 mm 0.00 in/hr0.0 mm/hr 0.00 in0.0 mm
12:59 AM 33.4°F0.8°C 24.7°F-4.1°C 70% 2.4 mph WSW3.9 kmh WSW 8.1 mph13.0 kmh 29.96 in1014.6 mb 0.00 in0.0 mm 0.00 in/hr0.0 mm/hr 0.00 in0.0 mm
12:58 AM 33.6°F0.9°C 24.9°F-3.9°C 70% 2.2 mph SW3.5 kmh SW 8.1 mph13.0 kmh 29.95 in1014.2 mb 0.00 in0.0 mm 0.00 in/hr0.0 mm/hr 0.00 in0.0 mm
12:57 AM 33.6°F0.9°C 24.9°F-3.9°C 70% 2.3 mph SW3.7 kmh SW 8.1 mph13.0 kmh 29.95 in1014.2 mb 0.00 in0.0 mm 0.00 in/hr0.0 mm/hr 0.00 in0.0 mm
12:56 AM 33.3°F0.7°C 24.6°F-4.1°C 70% 2.5 mph S4.0 kmh S 8.1 mph13.0 kmh 29.96 in1014.6 mb 0.00 in0.0 mm 0.00 in/hr0.0 mm/hr 0.00 in0.0 mm
12:55 AM 33.4°F0.8°C 24.7°F-4.1°C 70% 2.4 mph SSW3.9 kmh SSW 8.1 mph13.0 kmh 29.95 in1014.2 mb 0.00 in0.0 mm 0.00 in/hr0.0 mm/hr 0.00 in0.0 mm
12:54 AM 33.4°F0.8°C 24.7°F-4.1°C 70% 2.4 mph SSW3.9 kmh SSW 8.1 mph13.0 kmh 29.95 in1014.2 mb 0.00 in0.0 mm 0.00 in/hr0.0 mm/hr 0.00 in0.0 mm
12:53 AM 33.4°F0.8°C 24.7°F-4.1°C 70% 2.4 mph SSW3.9 kmh SSW 8.1 mph13.0 kmh 29.95 in1014.2 mb 0.00 in0.0 mm 0.00 in/hr0.0 mm/hr 0.00 in0.0 mm
12:52 AM 33.8°F1.0°C 24.7°F-4.1°C 69% 2.6 mph SSW4.2 kmh SSW 8.1 mph13.0 kmh 29.95 in1014.2 mb 0.00 in0.0 mm 0.00 in/hr0.0 mm/hr 0.00 in0.0 mm
12:51 AM 33.6°F0.9°C 24.9°F-3.9°C 70% 2.5 mph SSW4.0 kmh SSW 8.1 mph13.0 kmh 29.95 in1014.2 mb 0.00 in0.0 mm 0.00 in/hr0.0 mm/hr 0.00 in0.0 mm
12:50 AM 33.6°F0.9°C 24.9°F-3.9°C 70% 1.9 mph S3.1 kmh S 8.1 mph13.0 kmh 29.96 in1014.6 mb 0.00 in0.0 mm 0.00 in/hr0.0 mm/hr 0.00 in0.0 mm
12:49 AM 33.6°F0.9°C 24.9°F-3.9°C 70% 1.7 mph SE2.7 kmh SE 4.8 mph7.7 kmh 29.95 in1014.2 mb 0.00 in0.0 mm 0.00 in/hr0.0 mm/hr 0.00 in0.0 mm
12:48 AM 33.6°F0.9°C 24.9°F-3.9°C 70% 1.8 mph SE2.9 kmh SE 4.8 mph7.7 kmh 29.95 in1014.2 mb 0.00 in0.0 mm 0.00 in/hr0.0 mm/hr 0.00 in0.0 mm
12:47 AM 33.4°F0.8°C 24.7°F-4.1°C 70% 1.7 mph SE2.7 kmh SE 4.8 mph7.7 kmh 29.95 in1014.2 mb 0.00 in0.0 mm 0.00 in/hr0.0 mm/hr 0.00 in0.0 mm
12:46 AM 33.4°F0.8°C 24.7°F-4.1°C 70% 1.3 mph S2.1 kmh S 3.2 mph5.1 kmh 29.96 in1014.6 mb 0.00 in0.0 mm 0.00 in/hr0.0 mm/hr 0.00 in0.0 mm
12:45 AM 33.4°F0.8°C 24.7°F-4.1°C 70% 1.2 mph S1.9 kmh S 3.2 mph5.1 kmh 29.96 in1014.6 mb 0.00 in0.0 mm 0.00 in/hr0.0 mm/hr 0.00 in0.0 mm
12:44 AM 33.4°F0.8°C 24.7°F-4.1°C 70% 1.2 mph S1.9 kmh S 3.2 mph5.1 kmh 29.96 in1014.6 mb 0.00 in0.0 mm 0.00 in/hr0.0 mm/hr 0.00 in0.0 mm
12:43 AM 33.4°F0.8°C 24.7°F-4.1°C 70% 1.3 mph S2.1 kmh S 3.2 mph5.1 kmh 29.95 in1014.2 mb 0.00 in0.0 mm 0.00 in/hr0.0 mm/hr 0.00 in0.0 mm
12:42 AM 33.4°F0.8°C 24.7°F-4.1°C 70% 1.1 mph N1.8 kmh N 3.2 mph5.1 kmh 29.95 in1014.2 mb 0.00 in0.0 mm 0.00 in/hr0.0 mm/hr 0.00 in0.0 mm
12:41 AM 33.4°F0.8°C 24.7°F-4.1°C 70% 0.8 mph N1.3 kmh N 3.2 mph5.1 kmh 29.95 in1014.2 mb 0.00 in0.0 mm 0.00 in/hr0.0 mm/hr 0.00 in0.0 mm
12:40 AM 33.3°F0.7°C 24.6°F-4.1°C 70% 0.6 mph N1.0 kmh N 2.4 mph3.9 kmh 29.96 in1014.6 mb 0.00 in0.0 mm 0.00 in/hr0.0 mm/hr 0.00 in0.0 mm
12:39 AM 33.4°F0.8°C 24.7°F-4.1°C 70% 0.4 mph N0.6 kmh N 2.4 mph3.9 kmh 29.96 in1014.6 mb 0.00 in0.0 mm 0.00 in/hr0.0 mm/hr 0.00 in0.0 mm
12:38 AM 33.4°F0.8°C 24.7°F-4.1°C 70% 0.3 mph E0.5 kmh E 2.4 mph3.9 kmh 29.95 in1014.2 mb 0.00 in0.0 mm 0.00 in/hr0.0 mm/hr 0.00 in0.0 mm
12:37 AM 33.4°F0.8°C 24.7°F-4.1°C 70% 0.2 mph N0.3 kmh N 2.4 mph3.9 kmh 29.96 in1014.6 mb 0.00 in0.0 mm 0.00 in/hr0.0 mm/hr 0.00 in0.0 mm
12:36 AM 33.4°F0.8°C 24.7°F-4.1°C 70% 0.2 mph N0.3 kmh N 1.6 mph2.6 kmh 29.96 in1014.6 mb 0.00 in0.0 mm 0.00 in/hr0.0 mm/hr 0.00 in0.0 mm
12:35 AM 33.4°F0.8°C 24.7°F-4.1°C 70% 0.3 mph N0.5 kmh N 2.4 mph3.9 kmh 29.96 in1014.6 mb 0.00 in0.0 mm 0.00 in/hr0.0 mm/hr 0.00 in0.0 mm
12:34 AM 33.4°F0.8°C 24.7°F-4.1°C 70% 0.6 mph N1.0 kmh N 3.2 mph5.1 kmh 29.96 in1014.6 mb 0.00 in0.0 mm 0.00 in/hr0.0 mm/hr 0.00 in0.0 mm
12:33 AM 33.4°F0.8°C 24.7°F-4.1°C 70% 0.5 mph N0.8 kmh N 3.2 mph5.1 kmh 29.96 in1014.6 mb 0.00 in0.0 mm 0.00 in/hr0.0 mm/hr 0.00 in0.0 mm
12:32 AM 33.4°F0.8°C 24.7°F-4.1°C 70% 0.5 mph N0.8 kmh N 3.2 mph5.1 kmh 29.95 in1014.2 mb 0.00 in0.0 mm 0.00 in/hr0.0 mm/hr 0.00 in0.0 mm
12:31 AM 33.4°F0.8°C 24.7°F-4.1°C 70% 0.5 mph N0.8 kmh N 3.2 mph5.1 kmh 29.96 in1014.6 mb 0.00 in0.0 mm 0.00 in/hr0.0 mm/hr 0.00 in0.0 mm
12:30 AM 33.6°F0.9°C 24.9°F-3.9°C 70% 0.4 mph N0.6 kmh N 3.2 mph5.1 kmh 29.96 in1014.6 mb 0.00 in0.0 mm 0.00 in/hr0.0 mm/hr 0.00 in0.0 mm
12:29 AM 33.6°F0.9°C 24.9°F-3.9°C 70% 0.4 mph N0.6 kmh N 3.2 mph5.1 kmh 29.96 in1014.6 mb 0.00 in0.0 mm 0.00 in/hr0.0 mm/hr 0.00 in0.0 mm
12:28 AM 33.6°F0.9°C 24.9°F-3.9°C 70% 0.4 mph N0.6 kmh N 3.2 mph5.1 kmh 29.96 in1014.6 mb 0.00 in0.0 mm 0.00 in/hr0.0 mm/hr 0.00 in0.0 mm
12:27 AM 33.6°F0.9°C 24.9°F-3.9°C 70% 0.5 mph N0.8 kmh N 3.2 mph5.1 kmh 29.96 in1014.6 mb 0.00 in0.0 mm 0.00 in/hr0.0 mm/hr 0.00 in0.0 mm
12:26 AM 33.6°F0.9°C 24.9°F-3.9°C 70% 0.4 mph N0.6 kmh N 3.2 mph5.1 kmh 29.96 in1014.6 mb 0.00 in0.0 mm 0.00 in/hr0.0 mm/hr 0.00 in0.0 mm
12:25 AM 33.4°F0.8°C 24.7°F-4.1°C 70% 0.3 mph N0.5 kmh N 3.2 mph5.1 kmh 29.96 in1014.6 mb 0.00 in0.0 mm 0.00 in/hr0.0 mm/hr 0.00 in0.0 mm
12:24 AM 33.3°F0.7°C 24.6°F-4.1°C 70% Calm Calm -- 29.96 in1014.6 mb 0.00 in0.0 mm 0.00 in/hr0.0 mm/hr 0.00 in0.0 mm
12:23 AM 33.3°F0.7°C 24.9°F-3.9°C 71% Calm Calm -- 29.96 in1014.6 mb 0.00 in0.0 mm 0.00 in/hr0.0 mm/hr 0.00 in0.0 mm
12:22 AM 33.4°F0.8°C 25.1°F-3.8°C 71% Calm Calm -- 29.96 in1014.6 mb 0.00 in0.0 mm 0.00 in/hr0.0 mm/hr 0.00 in0.0 mm
12:21 AM 33.4°F0.8°C 25.1°F-3.8°C 71% 0.1 mph N0.2 kmh N 0.8 mph1.3 kmh 29.96 in1014.6 mb 0.00 in0.0 mm 0.00 in/hr0.0 mm/hr 0.00 in0.0 mm
12:20 AM 33.4°F0.8°C 24.7°F-4.1°C 70% 0.2 mph N0.3 kmh N 1.6 mph2.6 kmh 29.96 in1014.6 mb 0.00 in0.0 mm 0.00 in/hr0.0 mm/hr 0.00 in0.0 mm
12:19 AM 33.4°F0.8°C 24.7°F-4.1°C 70% 0.3 mph N0.5 kmh N 1.6 mph2.6 kmh 29.96 in1014.6 mb 0.00 in0.0 mm 0.00 in/hr0.0 mm/hr 0.00 in0.0 mm
12:18 AM 33.6°F0.9°C 24.9°F-3.9°C 70% 0.4 mph N0.6 kmh N 1.6 mph2.6 kmh 29.96 in1014.6 mb 0.00 in0.0 mm 0.00 in/hr0.0 mm/hr 0.00 in0.0 mm
12:17 AM 33.6°F0.9°C 24.9°F-3.9°C 70% 0.4 mph N0.6 kmh N 1.6 mph2.6 kmh 29.96 in1014.6 mb 0.00 in0.0 mm 0.00 in/hr0.0 mm/hr 0.00 in0.0 mm
12:16 AM 33.4°F0.8°C 24.7°F-4.1°C 70% 0.4 mph N0.6 kmh N 1.6 mph2.6 kmh 29.96 in1014.6 mb 0.00 in0.0 mm 0.00 in/hr0.0 mm/hr 0.00 in0.0 mm
12:15 AM 33.4°F0.8°C 24.7°F-4.1°C 70% 0.4 mph N0.6 kmh N 1.6 mph2.6 kmh 29.96 in1014.6 mb 0.00 in0.0 mm 0.00 in/hr0.0 mm/hr 0.00 in0.0 mm
12:14 AM 33.4°F0.8°C 24.7°F-4.1°C 70% 0.4 mph N0.6 kmh N 1.6 mph2.6 kmh 29.96 in1014.6 mb 0.00 in0.0 mm 0.00 in/hr0.0 mm/hr 0.00 in0.0 mm
12:13 AM 33.4°F0.8°C 24.7°F-4.1°C 70% 0.4 mph N0.6 kmh N 1.6 mph2.6 kmh 29.96 in1014.6 mb 0.00 in0.0 mm 0.00 in/hr0.0 mm/hr 0.00 in0.0 mm
12:12 AM 33.3°F0.7°C 24.6°F-4.1°C 70% 0.4 mph N0.6 kmh N 1.6 mph2.6 kmh 29.96 in1014.6 mb 0.00 in0.0 mm 0.00 in/hr0.0 mm/hr 0.00 in0.0 mm
12:11 AM 33.4°F0.8°C 24.7°F-4.1°C 70% 0.3 mph N0.5 kmh N 1.6 mph2.6 kmh 29.96 in1014.6 mb 0.00 in0.0 mm 0.00 in/hr0.0 mm/hr 0.00 in0.0 mm
12:10 AM 33.4°F0.8°C 24.7°F-4.1°C 70% 0.3 mph N0.5 kmh N 1.6 mph2.6 kmh 29.96 in1014.6 mb 0.00 in0.0 mm 0.00 in/hr0.0 mm/hr 0.00 in0.0 mm
12:09 AM 33.4°F0.8°C 24.7°F-4.1°C 70% 0.1 mph S0.2 kmh S 1.6 mph2.6 kmh 29.96 in1014.6 mb 0.00 in0.0 mm 0.00 in/hr0.0 mm/hr 0.00 in0.0 mm
12:08 AM 33.3°F0.7°C 24.6°F-4.1°C 70% 0.1 mph S0.2 kmh S 0.8 mph1.3 kmh 29.96 in1014.6 mb 0.00 in0.0 mm 0.00 in/hr0.0 mm/hr 0.00 in0.0 mm
12:07 AM 33.4°F0.8°C 24.7°F-4.1°C 70% 0.1 mph S0.2 kmh S 0.8 mph1.3 kmh 29.96 in1014.6 mb 0.00 in0.0 mm 0.00 in/hr0.0 mm/hr 0.00 in0.0 mm
12:06 AM 33.4°F0.8°C 24.7°F-4.1°C 70% 0.1 mph S0.2 kmh S 0.8 mph1.3 kmh 29.96 in1014.6 mb 0.00 in0.0 mm 0.00 in/hr0.0 mm/hr 0.00 in0.0 mm
12:05 AM 33.4°F0.8°C 24.7°F-4.1°C 70% 0.1 mph SW0.2 kmh SW 0.8 mph1.3 kmh 29.96 in1014.6 mb 0.00 in0.0 mm 0.00 in/hr0.0 mm/hr 0.00 in0.0 mm
12:04 AM 33.4°F0.8°C 24.7°F-4.1°C 70% 0.3 mph WSW0.5 kmh WSW 1.6 mph2.6 kmh 29.96 in1014.6 mb 0.00 in0.0 mm 0.00 in/hr0.0 mm/hr 0.00 in0.0 mm
12:03 AM 33.4°F0.8°C 24.7°F-4.1°C 70% 0.3 mph SW0.5 kmh SW 1.6 mph2.6 kmh 29.96 in1014.6 mb 0.00 in0.0 mm 0.00 in/hr0.0 mm/hr 0.00 in0.0 mm
12:02 AM 33.4°F0.8°C 24.7°F-4.1°C 70% 0.3 mph SW0.5 kmh SW 1.6 mph2.6 kmh 29.97 in1014.9 mb 0.00 in0.0 mm 0.00 in/hr0.0 mm/hr 0.00 in0.0 mm
12:01 AM 33.4°F0.8°C 24.7°F-4.1°C 70% 0.3 mph SW0.5 kmh SW 1.6 mph2.6 kmh 29.96 in1014.6 mb 0.00 in0.0 mm 0.00 in/hr0.0 mm/hr 0.00 in0.0 mm
12:00 AM 33.4°F0.8°C 25.1°F-3.8°C 71% 0.2 mph WSW0.3 kmh WSW 1.6 mph2.6 kmh 29.97 in1014.9 mb 0.00 in0.0 mm 0.00 in/hr0.0 mm/hr 0.00 in0.0 mm